createdAt,value
2019-03-08T00:00:41.315Z,97782.83
2019-03-08T00:03:09.467Z,97790.08
2019-03-08T00:05:38.062Z,97795.91
2019-03-08T00:08:06.064Z,97795.66
2019-03-08T00:10:34.039Z,97786.08
2019-03-08T00:13:02.213Z,97788.98
2019-03-08T00:15:30.393Z,97799.42
2019-03-08T00:17:58.211Z,97799.42
2019-03-08T00:20:26.029Z,97795.66
2019-03-08T00:22:54.610Z,97793.28
2019-03-08T00:25:22.442Z,97800.77
2019-03-08T00:27:50.831Z,97797.81
2019-03-08T00:30:18.661Z,97809.83
2019-03-08T00:32:46.638Z,97809.83
2019-03-08T00:35:15.158Z,97807.21
2019-03-08T00:37:43.975Z,97810.69
2019-03-08T00:40:12.200Z,97809.08
2019-03-08T00:42:40.353Z,97812.55
2019-03-08T00:45:09.358Z,97809.08
2019-03-08T00:47:37.783Z,97815.51
2019-03-08T00:50:05.972Z,97807.25
2019-03-08T00:52:34.931Z,97812.05
2019-03-08T00:55:03.002Z,97817.69
2019-03-08T00:57:30.692Z,97816.36
2019-03-08T00:59:58.537Z,97817.14
2019-03-08T01:02:26.857Z,97822.24
2019-03-08T01:04:54.545Z,97823.30
2019-03-08T01:07:22.404Z,97828.92
2019-03-08T01:09:50.209Z,97827.58
2019-03-08T01:12:17.938Z,97822.77
2019-03-08T01:14:45.961Z,97824.16
2019-03-08T01:17:15.428Z,97824.64
2019-03-08T01:19:43.757Z,97825.73
2019-03-08T01:22:11.449Z,97822.55
2019-03-08T01:24:39.273Z,97821.77
2019-03-08T01:27:07.298Z,97818.30
2019-03-08T01:29:35.302Z,97821.53
2019-03-08T01:32:05.384Z,97823.64
2019-03-08T01:34:33.067Z,97821.81
2019-03-08T01:37:01.062Z,97830.64
2019-03-08T01:39:28.875Z,97833.31
2019-03-08T01:41:56.717Z,97831.73
2019-03-08T01:44:25.092Z,97834.41
2019-03-08T01:46:54.260Z,97832.27
2019-03-08T01:49:22.441Z,97834.69
2019-03-08T01:51:50.952Z,97834.13
2019-03-08T01:54:19.184Z,97844.31
2019-03-08T01:56:47.488Z,97842.18
2019-03-08T01:59:15.528Z,97839.22
2019-03-08T02:01:43.343Z,97832.31
2019-03-08T02:04:12.025Z,97822.97
2019-03-08T02:06:39.949Z,97828.02
2019-03-08T02:09:07.864Z,97833.08
2019-03-08T02:11:35.638Z,97829.36
2019-03-08T02:14:03.578Z,97826.21
2019-03-08T02:16:31.670Z,97826.45
2019-03-08T02:19:00.490Z,97832.36
2019-03-08T02:21:28.578Z,97834.55
2019-03-08T02:23:56.251Z,97835.61
2019-03-08T02:26:24.226Z,97829.50
2019-03-08T02:28:52.553Z,97832.17
2019-03-08T02:31:20.396Z,97832.73
2019-03-08T02:33:48.346Z,97835.69
2019-03-08T02:36:17.462Z,97833.02
2019-03-08T02:38:45.752Z,97835.45
2019-03-08T02:41:13.837Z,97830.64
2019-03-08T02:43:41.853Z,97825.59
2019-03-08T02:46:09.868Z,97826.13
2019-03-08T02:48:37.542Z,97835.50
2019-03-08T02:51:05.602Z,97838.17
2019-03-08T02:53:34.052Z,97842.17
2019-03-08T02:56:01.934Z,97840.03
2019-03-08T02:58:29.929Z,97844.84
2019-03-08T03:00:58.209Z,97837.65
2019-03-08T03:03:25.873Z,97844.08
2019-03-08T03:05:53.641Z,97855.52
2019-03-08T03:08:21.946Z,97866.23
2019-03-08T03:10:49.838Z,97867.84
2019-03-08T03:13:17.498Z,97881.19
2019-03-08T03:15:45.717Z,97894.25
2019-03-08T03:18:13.682Z,97919.59
2019-03-08T03:20:41.834Z,97922.27
2019-03-08T03:23:09.515Z,97916.67
2019-03-08T03:25:37.339Z,97921.24
2019-03-08T03:28:05.383Z,97938.55
2019-03-08T03:30:33.124Z,97926.58
2019-03-08T03:33:01.211Z,97934.09
2019-03-08T03:35:29.227Z,97929.81
2019-03-08T03:37:56.905Z,97924.55
2019-03-08T03:40:24.630Z,97927.47
2019-03-08T03:42:52.587Z,97927.78
2019-03-08T03:45:20.275Z,97928.06
2019-03-08T03:47:48.544Z,97937.44
2019-03-08T03:50:18.731Z,97941.72
2019-03-08T03:52:46.696Z,97928.78
2019-03-08T03:55:14.542Z,97942.84
2019-03-08T03:57:42.311Z,97943.37
2019-03-08T04:00:11.989Z,97948.98
2019-03-08T04:02:39.781Z,97954.84
2019-03-08T04:05:07.750Z,97954.88
2019-03-08T04:07:35.658Z,97963.94
2019-03-08T04:10:04.441Z,97970.39
2019-03-08T04:12:32.162Z,97974.88
2019-03-08T04:14:59.915Z,97979.16
2019-03-08T04:17:27.936Z,97994.11
2019-03-08T04:19:55.651Z,97984.49
2019-03-08T04:22:23.515Z,97981.05
2019-03-08T04:24:51.491Z,97978.64
2019-03-08T04:27:19.184Z,97978.88
2019-03-08T04:29:47.232Z,97984.53
2019-03-08T04:32:15.037Z,97979.44
2019-03-08T04:34:43.344Z,97982.14
2019-03-08T04:37:11.433Z,97991.75
2019-03-08T04:39:39.464Z,97992.28
2019-03-08T04:42:07.212Z,97994.98
2019-03-08T04:44:36.141Z,97999.50
2019-03-08T04:47:03.915Z,98003.50
2019-03-08T04:49:31.686Z,98012.30
2019-03-08T04:52:00.481Z,98008.27
2019-03-08T04:54:28.274Z,98010.66
2019-03-08T04:56:56.064Z,98011.22
2019-03-08T04:59:24.211Z,98017.61
2019-03-08T05:01:51.764Z,98004.55
2019-03-08T05:04:19.439Z,98014.45
2019-03-08T05:06:47.234Z,98010.97
2019-03-08T05:09:15.306Z,98021.66
2019-03-08T05:11:43.243Z,98023.00
2019-03-08T05:14:11.683Z,98022.19
2019-03-08T05:16:39.336Z,98019.00
2019-03-08T05:19:07.146Z,98023.52
2019-03-08T05:21:34.837Z,98017.16
2019-03-08T05:24:02.760Z,98024.61
2019-03-08T05:26:30.677Z,98023.28
2019-03-08T05:29:01.436Z,98033.16
2019-03-08T05:31:29.253Z,98035.80
2019-03-08T05:34:03.530Z,98029.41
2019-03-08T05:36:31.317Z,98035.27
2019-03-08T05:38:59.497Z,98043.55
2019-03-08T05:41:27.393Z,98044.63
2019-03-08T05:44:45.952Z,98047.82
2019-03-08T05:47:18.452Z,98053.94
2019-03-08T05:49:45.939Z,98059.82
2019-03-08T05:52:14.320Z,98061.40
2019-03-08T05:54:43.220Z,98067.52
2019-03-08T05:57:11.064Z,98069.09
2019-03-08T05:59:39.859Z,98071.52
2019-03-08T06:02:07.692Z,98075.52
2019-03-08T06:04:36.165Z,98078.43
2019-03-08T06:07:04.112Z,98085.59
2019-03-08T06:09:31.795Z,98087.98
2019-03-08T06:11:59.603Z,98091.71
2019-03-08T06:14:27.738Z,98090.91
2019-03-08T06:16:55.612Z,98101.83
2019-03-08T06:19:23.589Z,98106.88
2019-03-08T06:21:51.276Z,98107.69
2019-03-08T06:24:18.986Z,98110.88
2019-03-08T06:26:46.682Z,98110.88
2019-03-08T06:29:14.913Z,98118.88
2019-03-08T06:31:42.925Z,98119.91
2019-03-08T06:34:11.027Z,98123.11
2019-03-08T06:36:39.133Z,98118.02
2019-03-08T06:39:08.562Z,98121.75
2019-03-08T06:41:36.495Z,98130.53
2019-03-08T06:44:04.466Z,98135.86
2019-03-08T06:46:33.118Z,98137.20
2019-03-08T06:49:01.009Z,98143.59
2019-03-08T06:51:29.158Z,98152.06
2019-03-08T06:53:57.458Z,98157.66
2019-03-08T06:56:25.579Z,98160.02
2019-03-08T06:59:13.561Z,98119.36
2019-03-08T07:01:42.365Z,98156.48
2019-03-08T07:04:10.286Z,98164.77
2019-03-08T07:06:37.974Z,98164.22
2019-03-08T07:09:07.280Z,98142.17
2019-03-08T07:11:35.449Z,98173.53
2019-03-08T07:14:03.443Z,98181.00
2019-03-08T07:16:31.486Z,98189.23
2019-03-08T07:18:59.561Z,98190.03
2019-03-08T07:21:40.929Z,98188.70
2019-03-08T07:24:18.525Z,98204.16
2019-03-08T07:27:13.333Z,98208.72
2019-03-08T07:30:06.829Z,98208.72
2019-03-08T07:32:43.692Z,98218.86
2019-03-08T07:35:48.826Z,98226.92
2019-03-08T07:38:39.547Z,98226.39
2019-03-08T07:41:29.723Z,98232.76
2019-03-08T07:44:06.247Z,98242.88
2019-03-08T07:47:09.507Z,98248.50
2019-03-08T07:50:06.699Z,98260.00
2019-03-08T07:52:54.330Z,98267.45
2019-03-08T07:55:33.034Z,98268.23
2019-03-08T07:58:12.543Z,98272.22
2019-03-08T08:01:06.163Z,98280.42
2019-03-08T08:03:59.392Z,98284.94
2019-03-08T08:06:37.508Z,98288.13
2019-03-08T08:09:33.000Z,98297.20
2019-03-08T08:12:27.061Z,98297.93
2019-03-08T08:15:03.748Z,98309.42
2019-03-08T08:17:46.585Z,98308.89
2019-03-08T08:20:27.329Z,98313.12
2019-03-08T08:23:20.910Z,98291.28
2019-03-08T08:25:58.958Z,98321.59
2019-03-08T08:28:49.723Z,98322.92
2019-03-08T08:31:35.822Z,98329.59
2019-03-08T08:34:24.606Z,98333.86
2019-03-08T08:37:14.798Z,98331.19
2019-03-08T08:40:08.185Z,98341.31
2019-03-08T08:42:51.548Z,98341.06
2019-03-08T08:45:38.911Z,98345.38
2019-03-08T08:48:21.387Z,98353.64
2019-03-08T08:51:07.219Z,98352.27
2019-03-08T08:53:54.674Z,98354.14
2019-03-08T08:56:51.102Z,98353.53
2019-03-08T08:59:38.845Z,98355.67
2019-03-08T09:02:21.550Z,98362.60
2019-03-08T09:05:18.916Z,98365.55
2019-03-08T09:07:54.881Z,98359.68
2019-03-08T09:10:41.205Z,98359.94
2019-03-08T09:13:23.013Z,98362.05
2019-03-08T09:16:11.317Z,98362.61
2019-03-08T09:19:05.154Z,98367.92
2019-03-08T09:21:55.751Z,98367.89
2019-03-08T09:24:39.514Z,98365.72
2019-03-08T09:27:25.628Z,98356.68
2019-03-08T09:30:14.258Z,98367.28
2019-03-08T09:32:48.951Z,98361.10
2019-03-08T09:35:42.511Z,98364.24
2019-03-08T09:38:39.270Z,98363.72
2019-03-08T09:41:25.563Z,98373.81
2019-03-08T09:44:00.824Z,98375.41
2019-03-08T09:46:47.034Z,98372.73
2019-03-08T09:49:37.186Z,98378.85
2019-03-08T09:52:16.100Z,98388.20
2019-03-08T09:55:04.335Z,98391.59
2019-03-08T09:57:52.205Z,98389.70
2019-03-08T10:00:39.781Z,98385.69
2019-03-08T10:03:20.283Z,98391.09
2019-03-08T10:06:22.843Z,98404.41
2019-03-08T10:09:19.966Z,98403.66
2019-03-08T10:12:16.569Z,98406.83
2019-03-08T10:15:02.406Z,98404.16
2019-03-08T10:17:49.791Z,98413.48
2019-03-08T10:20:35.253Z,98396.07
2019-03-08T10:23:29.006Z,98402.44
2019-03-08T10:26:09.547Z,98392.48
2019-03-08T10:28:56.841Z,98400.66
2019-03-08T10:31:35.039Z,98405.19
2019-03-08T10:34:31.715Z,98403.11
2019-03-08T10:37:22.011Z,98412.51
2019-03-08T10:40:14.659Z,98408.50
2019-03-08T10:42:54.092Z,98422.13
2019-03-08T10:45:53.549Z,98429.89
2019-03-08T10:48:36.748Z,98441.37
2019-03-08T10:51:26.418Z,98432.72
2019-03-08T10:54:29.484Z,98438.53
2019-03-08T10:57:12.932Z,98451.87
2019-03-08T11:00:09.585Z,98433.63
2019-03-08T11:02:57.289Z,98437.64
2019-03-08T11:05:40.009Z,98440.33
2019-03-08T11:08:16.641Z,98450.21
2019-03-08T11:10:56.634Z,98447.57
2019-03-08T11:13:45.686Z,98455.81
2019-03-08T11:16:37.294Z,98461.69
2019-03-08T11:19:34.084Z,98464.02
2019-03-08T11:22:27.603Z,98448.52
2019-03-08T11:25:13.806Z,98458.12
2019-03-08T11:27:54.801Z,98465.84
2019-03-08T11:30:54.439Z,98467.98
2019-03-08T11:33:47.640Z,98463.52
2019-03-08T11:36:32.891Z,98470.78
2019-03-08T11:39:12.439Z,98471.91
2019-03-08T11:42:18.503Z,98477.28
2019-03-08T11:45:05.692Z,98482.08
2019-03-08T11:47:44.351Z,98469.44
2019-03-08T11:50:37.422Z,98473.38
2019-03-08T11:53:14.187Z,98472.81
2019-03-08T11:56:13.815Z,98470.66
2019-03-08T11:59:03.457Z,98471.23
2019-03-08T12:01:53.803Z,98472.25
2019-03-08T12:04:40.863Z,98469.86
2019-03-08T12:07:17.362Z,98474.47
2019-03-08T12:10:03.182Z,98469.64
2019-03-08T12:12:56.473Z,98471.19
2019-03-08T12:15:46.793Z,98471.92
2019-03-08T12:18:34.257Z,98468.19
2019-03-08T12:21:20.398Z,98473.30
2019-03-08T12:24:19.951Z,98476.43
2019-03-08T12:27:07.487Z,98483.38
2019-03-08T12:30:04.715Z,98482.28
2019-03-08T12:32:38.061Z,98477.00
2019-03-08T12:35:26.198Z,98480.03
2019-03-08T12:38:11.354Z,98482.46
2019-03-08T12:41:04.665Z,98481.37
2019-03-08T12:43:54.987Z,98477.59
2019-03-08T12:46:51.393Z,98474.32
2019-03-08T12:49:34.180Z,98472.14
2019-03-08T12:52:19.273Z,98470.76
2019-03-08T12:55:05.160Z,98471.77
2019-03-08T12:58:01.592Z,98463.05
2019-03-08T13:00:55.262Z,98471.64
2019-03-08T13:03:35.118Z,98475.45
2019-03-08T13:06:10.742Z,98493.16
2019-03-08T13:08:46.411Z,98481.16
2019-03-08T13:11:14.265Z,98491.37
2019-03-08T13:13:43.119Z,98494.58
2019-03-08T13:16:14.230Z,98496.20
2019-03-08T13:18:42.246Z,98492.19
2019-03-08T13:21:10.789Z,98498.59
2019-03-08T13:23:38.672Z,98499.93
2019-03-08T13:26:06.535Z,98507.95
2019-03-08T13:28:35.131Z,98503.41
2019-03-08T13:31:05.271Z,98501.77
2019-03-08T13:33:32.983Z,98513.52
2019-03-08T13:36:00.682Z,98494.26
2019-03-08T13:38:29.849Z,98490.21
2019-03-08T13:40:58.144Z,98498.48
2019-03-08T13:43:26.104Z,98500.81
2019-03-08T13:46:34.922Z,98500.81
2019-03-08T13:49:02.912Z,98503.77
2019-03-08T13:51:30.955Z,98549.87
2019-03-08T13:53:58.598Z,98552.55
2019-03-08T13:56:26.558Z,98558.46
2019-03-08T13:58:54.862Z,98552.08
2019-03-08T14:01:22.513Z,98553.98
2019-03-08T14:03:50.603Z,98568.98
2019-03-08T14:06:18.961Z,98575.11
2019-03-08T14:08:46.773Z,98574.36
2019-03-08T14:11:14.991Z,98570.09
2019-03-08T14:13:42.570Z,98574.66
2019-03-08T14:16:10.630Z,98576.84
2019-03-08T14:18:38.454Z,98590.24
2019-03-08T14:21:06.344Z,98587.34
2019-03-08T14:23:34.565Z,98587.36
2019-03-08T14:26:02.268Z,98579.31
2019-03-08T14:28:31.172Z,98578.51
2019-03-08T14:31:08.913Z,98587.62
2019-03-08T14:33:38.181Z,98583.08
2019-03-08T14:36:07.147Z,98583.86
2019-03-08T14:38:37.683Z,98583.61
2019-03-08T14:41:21.301Z,98588.17
2019-03-08T14:44:08.560Z,98579.11
2019-03-08T14:46:43.780Z,98575.88
2019-03-08T14:49:11.803Z,98572.15
2019-03-08T14:51:40.096Z,98568.95
2019-03-08T14:54:09.851Z,98565.21
2019-03-08T14:56:37.929Z,98559.61
2019-03-08T14:59:05.704Z,98551.30
2019-03-08T15:01:33.337Z,98552.11
2019-03-08T15:04:00.989Z,98547.30
2019-03-08T15:06:29.611Z,98535.26
2019-03-08T15:08:57.478Z,98547.30
2019-03-08T15:11:25.534Z,98539.55
2019-03-08T15:13:53.312Z,98545.16
2019-03-08T15:16:21.746Z,98547.86
2019-03-08T15:18:49.446Z,98556.41
2019-03-08T15:21:17.776Z,98545.70
2019-03-08T15:23:46.447Z,98555.88
2019-03-08T15:26:14.386Z,98544.13
2019-03-08T15:28:42.182Z,98544.92
2019-03-08T15:31:09.936Z,98542.25
2019-03-08T15:33:37.846Z,98550.27
2019-03-08T15:36:05.492Z,98544.67
2019-03-08T15:38:33.339Z,98557.23
2019-03-08T15:41:01.411Z,98558.85
2019-03-08T15:43:29.048Z,98557.80
2019-03-08T15:45:56.738Z,98560.19
2019-03-08T15:48:24.487Z,98564.75
2019-03-08T15:50:52.325Z,98570.10
2019-03-08T15:53:20.087Z,98577.06
2019-03-08T15:55:52.798Z,98571.97
2019-03-08T15:58:18.282Z,98563.41
2019-03-08T16:00:46.172Z,98555.95
2019-03-08T16:03:13.966Z,98549.80
2019-03-08T16:05:41.716Z,98551.16
2019-03-08T16:08:10.375Z,98555.72
2019-03-08T16:10:39.182Z,98573.10
2019-03-08T16:13:07.331Z,98570.17
2019-03-08T16:15:36.109Z,98578.98
2019-03-08T16:18:03.864Z,98583.02
2019-03-08T16:20:31.715Z,98570.72
2019-03-08T16:23:02.666Z,98573.67
2019-03-08T16:25:29.527Z,98570.77
2019-03-08T16:27:57.748Z,98569.44
2019-03-08T16:30:31.710Z,98567.56
2019-03-08T16:33:27.748Z,98572.66
2019-03-08T16:36:25.707Z,98576.94
2019-03-08T16:39:11.940Z,98575.06
2019-03-08T16:42:18.241Z,98579.09
2019-03-08T16:45:05.764Z,98572.66
2019-03-08T16:47:51.953Z,98581.79
2019-03-08T16:50:35.958Z,98582.05
2019-03-08T16:53:21.395Z,98584.17
2019-03-08T16:55:57.307Z,98589.80
2019-03-08T16:58:43.550Z,98587.92
2019-03-08T17:01:26.040Z,98585.25
2019-03-08T17:04:12.796Z,98592.70
2019-03-08T17:06:46.475Z,98594.58
2019-03-08T17:09:27.800Z,98603.42
2019-03-08T17:12:08.092Z,98600.22
2019-03-08T17:15:10.283Z,98607.44
2019-03-08T17:18:15.913Z,98611.44
2019-03-08T17:21:06.307Z,98617.88
2019-03-08T17:24:02.656Z,98619.71
2019-03-08T17:26:52.721Z,98627.19
2019-03-08T17:29:38.507Z,98625.04
2019-03-08T17:32:11.785Z,98624.25
2019-03-08T17:35:08.376Z,98629.84
2019-03-08T17:37:50.867Z,98633.05
2019-03-08T17:40:37.080Z,98641.87
2019-03-08T17:43:17.806Z,98641.38
2019-03-08T17:45:53.845Z,98638.70
2019-03-08T17:48:47.032Z,98652.06
2019-03-08T17:51:37.570Z,98650.45
2019-03-08T17:54:27.586Z,98652.35
2019-03-08T17:57:15.253Z,98660.12
2019-03-08T18:00:15.278Z,98659.56
2019-03-08T18:02:58.867Z,98663.81
2019-03-08T18:05:52.476Z,98662.49
2019-03-08T18:08:39.148Z,98667.53
2019-03-08T18:11:17.143Z,98669.17
2019-03-08T18:14:07.692Z,98663.80
2019-03-08T18:16:49.859Z,98667.82
2019-03-08T18:19:56.276Z,98669.13
2019-03-08T18:22:44.089Z,98669.89
2019-03-08T18:25:29.205Z,98672.84
2019-03-08T18:28:26.006Z,98672.56
2019-03-08T18:31:14.114Z,98676.03
2019-03-08T18:33:47.745Z,98685.64
2019-03-08T18:36:50.721Z,98684.59
2019-03-08T18:39:37.702Z,98681.35
2019-03-08T18:42:15.019Z,98690.98
2019-03-08T18:45:04.987Z,98695.53
2019-03-08T18:47:52.405Z,98693.61
2019-03-08T18:50:42.586Z,98710.98
2019-03-08T18:53:39.552Z,98708.33
2019-03-08T18:56:26.120Z,98709.92
2019-03-08T18:59:16.775Z,98716.29
2019-03-08T19:02:16.938Z,98714.19
2019-03-08T19:05:04.592Z,98706.20
2019-03-08T19:07:55.072Z,98702.20
2019-03-08T19:10:33.674Z,98703.56
2019-03-08T19:13:11.375Z,98705.19
2019-03-08T19:15:57.456Z,98703.03
2019-03-08T19:18:44.904Z,98700.34
2019-03-08T19:21:31.231Z,98697.41
2019-03-08T19:24:08.268Z,98691.23
2019-03-08T19:26:54.298Z,98695.55
2019-03-08T19:29:45.778Z,98697.71
2019-03-08T19:32:36.282Z,98705.73
2019-03-08T19:35:10.726Z,98706.02
2019-03-08T19:37:56.822Z,98706.02
2019-03-08T19:41:02.841Z,98707.36
2019-03-08T19:43:41.480Z,98714.84
2019-03-08T19:46:31.987Z,98708.70
2019-03-08T19:49:18.600Z,98673.75
2019-03-08T19:52:05.015Z,98708.16
2019-03-08T19:54:52.590Z,98702.26
2019-03-08T19:57:38.792Z,98702.26
2019-03-08T20:00:30.273Z,98709.47
2019-03-08T20:03:17.347Z,98716.95
2019-03-08T20:05:51.721Z,98717.77
2019-03-08T20:08:37.597Z,98723.11
2019-03-08T20:11:31.068Z,98720.44
2019-03-08T20:14:18.600Z,98725.24
2019-03-08T20:17:04.073Z,98729.25
2019-03-08T20:19:39.265Z,98730.59
2019-03-08T20:22:18.148Z,98739.70
2019-03-08T20:25:11.572Z,98739.39
2019-03-08T20:28:11.186Z,98736.48
2019-03-08T20:30:58.670Z,98736.20
2019-03-08T20:33:49.647Z,98735.65
2019-03-08T20:36:36.561Z,98733.52
2019-03-08T20:39:40.301Z,98735.39
2019-03-08T20:42:22.444Z,98735.94
2019-03-08T20:45:10.079Z,98739.91
2019-03-08T20:47:37.899Z,98734.31
2019-03-08T20:50:08.207Z,98735.91
2019-03-08T20:52:36.236Z,98745.53
2019-03-08T20:55:04.091Z,98697.49
2019-03-08T20:57:32.268Z,98741.74
2019-03-08T21:00:00.596Z,98735.08
2019-03-08T21:02:28.793Z,98735.91
2019-03-08T21:04:57.548Z,98738.61
2019-03-08T21:07:25.993Z,98733.00
2019-03-08T21:09:53.953Z,98734.61
2019-03-08T21:12:21.660Z,98733.31
2019-03-08T21:14:50.092Z,98731.43
2019-03-08T21:17:20.338Z,98728.50
2019-03-08T21:19:48.577Z,98726.12
2019-03-08T21:22:16.689Z,98724.78
2019-03-08T21:24:45.266Z,98726.38
2019-03-08T21:27:13.417Z,98727.98
2019-03-08T21:29:41.306Z,98727.97
2019-03-08T21:32:10.778Z,98730.92
2019-03-08T21:34:38.481Z,98730.09
2019-03-08T21:37:06.060Z,98729.59
2019-03-08T21:39:34.602Z,98726.65
2019-03-08T21:42:02.531Z,98725.05
2019-03-08T21:44:31.994Z,98722.11
2019-03-08T21:46:59.994Z,98721.57
2019-03-08T21:49:28.092Z,98722.38
2019-03-08T21:51:55.951Z,98720.77
2019-03-08T21:54:24.905Z,98715.14
2019-03-08T21:56:53.596Z,98718.36
2019-03-08T21:59:21.412Z,98714.89
2019-03-08T22:01:49.059Z,98712.50
2019-03-08T22:04:25.773Z,98713.02
2019-03-08T22:06:53.478Z,98706.33
2019-03-08T22:09:31.064Z,98697.79
2019-03-08T22:11:58.776Z,98693.80
2019-03-08T22:14:26.891Z,98701.55
2019-03-08T22:16:54.763Z,98687.89
2019-03-08T22:19:22.453Z,98690.87
2019-03-08T22:21:50.284Z,98690.58
2019-03-08T22:24:18.123Z,98684.19
2019-03-08T22:26:45.899Z,98688.72
2019-03-08T22:29:13.875Z,98686.58
2019-03-08T22:31:42.160Z,98686.32
2019-03-08T22:34:09.914Z,98685.25
2019-03-08T22:36:37.422Z,98679.64
2019-03-08T22:39:06.232Z,98684.44
2019-03-08T22:41:34.336Z,98676.67
2019-03-08T22:44:02.221Z,98673.21
2019-03-08T22:46:30.242Z,98674.55
2019-03-08T22:48:58.475Z,98676.42
2019-03-08T22:51:27.560Z,98670.28
2019-03-08T22:53:55.499Z,98669.20
2019-03-08T22:56:23.314Z,98666.28
2019-03-08T22:58:51.222Z,98653.71
2019-03-08T23:01:19.926Z,98653.44
2019-03-08T23:03:47.702Z,98650.77
2019-03-08T23:06:17.454Z,98649.45
2019-03-08T23:08:46.649Z,98650.77
2019-03-08T23:11:17.086Z,98644.11
2019-03-08T23:13:46.511Z,98646.52
2019-03-08T23:16:16.398Z,98638.49
2019-03-08T23:18:44.978Z,98638.80
2019-03-08T23:21:14.219Z,98640.63
2019-03-08T23:23:42.790Z,98633.94
2019-03-08T23:26:10.876Z,98627.81
2019-03-08T23:28:49.363Z,98634.50
2019-03-08T23:31:25.319Z,98632.61
2019-03-08T23:33:54.112Z,98628.87
2019-03-08T23:36:22.943Z,98634.75
2019-03-08T23:38:52.183Z,98639.84
2019-03-08T23:41:21.393Z,98641.16
2019-03-08T23:43:50.987Z,98635.31
2019-03-08T23:46:19.356Z,98635.82
2019-03-08T23:48:47.712Z,98633.17
2019-03-08T23:51:16.190Z,98633.70
2019-03-08T23:53:46.328Z,98627.28
2019-03-08T23:56:14.609Z,98622.19
2019-03-08T23:58:42.930Z,98623.55
